Terminal Aerodrome Forecast
Issued by NWS Bismarck, ND

Home | Current Version | Previous Version | Graphics & Text | Print | Product List | Glossary On
Versions: 1 2 3 4 5 6 7 8 9 10 11 12 13 14
000
FTUS43 KBIS 301125
TAFBIS
TAF
KBIS 301125Z 3012/0112 10007KT P6SM -SHRA BKN050 OVC100
     FM301700 14010KT P6SM VCSH SCT060 BKN100
     FM010100 10008KT P6SM -SHRA VCTS BKN050 BKN100CB=

USA.gov is the U.S. government's official web portal to all federal, state and local government web resources and services.